• Join FlightAware (Why Join?)
  • Login
  • US Flag 
08:49PM EDT


 

Airport Tracker/Info


-or-


 

Live Flight TrackerFlight Track Log ✈ ASQ5309 ✈ 24-May-2012 ✈ CYYZ - KDTW

Flight Track Log - Related Links

Times and Time Zones

All times are in EDT time to prevent confusion due to time zone crossing. See the ASQ5309 flight status page for this flight to view local times or setup timezone preferences in your user account.

Time Position Orientation Groundspeed Altitude Reporting Facility
EDT Latitude Longitude Course Direction KTS MPH feet Rate Location/Type
06:32AM 43.6667 -79.6500 227° Southwest 170 196 2,000  Level Toronto Center
06:33AM 43.6333 -79.7000 235° Southwest 210 242 4,000 2,400 Climbing Toronto Center
06:34AM 43.5833 -79.8000 224° Southwest 260 299 6,800 1,980 Climbing Toronto Center
06:35AM 43.5333 -79.8667 224° Southwest 270 311 8,000 1,860 Climbing Toronto Center
06:36AM 43.4833 -79.9333 210° Southwest 270 311 10,600 2,220 Climbing Toronto Center
06:37AM 43.4000 -80.0000 222° Southwest 320 368 12,500 2,040 Climbing Toronto Center
06:38AM 43.3333 -80.0833 226° Southwest 350 403 14,700 2,220 Climbing Toronto Center
06:39AM 43.2500 -80.2000 228° Southwest 380 437 17,000 2,100 Climbing Toronto Center
06:40AM 43.1833 -80.3000 236° Southwest 390 449 19,000 2,100 Climbing Toronto Center
06:41AM 43.1167 -80.4333 251° West 400 460 21,300 1,500 Climbing Toronto Center
06:42AM 43.0833 -80.5667 250° West 420 483 22,000 300 Climbing Toronto Center
06:43AM 43.0333 -80.7500 243° Southwest 440 506 22,000  Level Toronto Center
06:44AM 42.9833 -80.8833 250° West 450 518 22,000  Level Toronto Center
06:45AM 42.9333 -81.0667 248° West 450 518 22,000  Level Toronto Center
06:46AM 42.8833 -81.2333 251° West 450 518 22,000  Level Toronto Center
06:47AM 42.8500 -81.3667 248° West 450 518 22,000  Level Toronto Center
06:48AM 42.8000 -81.5333 248° West 450 518 22,000  Level Toronto Center
06:49AM 42.7500 -81.7000 253° West 450 518 22,000  Level Toronto Center
06:50AM 42.7167 -81.8500 242° Southwest 450 518 22,000 -600 Level Toronto Center
06:51AM 42.6500 -82.0167 253° West 450 518 20,800 -1,920 Descending Toronto Center
06:52AM 42.6167 -82.1667 254° West 440 506 18,200 -2,520 Descending Toronto Center
06:53AM 42.5953 -82.2658 248° West 428 493 16,600 -2,640 Descending FAA TRACON SMA TRACON (SMA)
06:54AM 42.5653 -82.3664 247° West 417 480 14,800 -2,580 Descending FAA TRACON SMA TRACON (SMA)
06:54AM 42.5364 -82.4592 247° West 403 464 13,200 -2,040 Descending FAA TRACON SMA TRACON (SMA)
06:55AM 42.5100 -82.5444 244° Southwest 388 447 12,100 -1,140 Descending FAA TRACON SMA TRACON (SMA)
06:56AM 42.4789 -82.6322 240° Southwest 374 430 11,700 -840 Descending FAA TRACON SMA TRACON (SMA)
06:56AM 42.4458 -82.7089 234° Southwest 345 397 11,000 -1,020 Descending FAA TRACON SMA TRACON (SMA)
06:57AM 42.4128 -82.7703 235° Southwest 314 361 10,400 -900 Descending FAA TRACON SMA TRACON (SMA)
06:58AM 42.3819 -82.8306 263° West 280 322 9,800 -1,020 Descending FAA TRACON SMA TRACON (SMA)
06:58AM 42.3764 -82.8911 287° West 260 299 9,100 -1,020 Descending FAA TRACON SMA TRACON (SMA)
06:59AM 42.3894 -82.9492 288° West 250 288 8,500 -1,080 Descending FAA TRACON SMA TRACON (SMA)
07:00AM 42.4036 -83.0075 277° West 238 274 7,700 -1,380 Descending FAA TRACON SMA TRACON (SMA)
07:00AM 42.4089 -83.0650 267° West 234 269 6,700 -1,440 Descending FAA TRACON SMA TRACON (SMA)
07:01AM 42.4053 -83.1522 255° West 224 258 5,300 -1,260 Descending FAA TRACON SMA TRACON (SMA)
07:02AM 42.3958 -83.2000 214° Southwest 185 213 4,700 -900 Descending FAA TRACON SMA TRACON (SMA)
07:03AM 42.3692 -83.2247 206° Southwest 177 204 4,100 -780 Descending FAA TRACON SMA TRACON (SMA)
07:03AM 42.3400 -83.2442 210° Southwest 175 201 3,700 -1,020 Descending FAA TRACON SMA TRACON (SMA)
07:04AM 42.3117 -83.2661 209° Southwest 174 200 2,800 -1,140 Descending FAA TRACON SMA TRACON (SMA)
07:05AM 42.2858 -83.2853 209° Southwest 150 173 2,200 -900 Descending FAA TRACON SMA TRACON (SMA)
07:06AM 42.2617 -83.3031 209° Southwest 123 142 1,600 -720 Descending FAA TRACON SMA TRACON (SMA)
07:06AM 42.2442 -83.3161 208° Southwest 123 142 1,300 -660 Descending FAA TRACON SMA TRACON (SMA)
07:07AM 42.2236 -83.3311 208° Southwest 129 148 800 -420 Descending FAA TRACON SMA TRACON (SMA)
07:07AM 42.2206 -83.3333 208° Southwest 131 151 800  Level FAA TRACON SMA TRACON (SMA)